Aviation Digital Data Service (ADDS)

Output produced by METARs form (0654 UTC 18 February 2018)
found at http://www.aviationweather.gov/adds/metars/
 
KBFD 180642Z AUTO 27009G14KT 4SM -SN BR BKN009 OVC039 M03/M04 A2994 RMK AO2 SNB00 P0000 T10281039
KBFD 180633Z AUTO 27005KT 3SM -SN BR FEW007 OVC039 M03/M04 A2993 RMK AO2 SNB00 P0000 T10281039
KBFD 180553Z AUTO 30006KT 7SM BKN049 OVC070 M03/M04 A2991 RMK AO2 SNE49 SLP152 P0001 60010 T10281039 11022 21028 53002
KBFD 180538Z AUTO 26003KT 4SM -SN BR FEW009 BKN043 OVC070 M03/M03 A2990 RMK AO2 P0001 T10281033
KBFD 180527Z AUTO 28005KT 2SM -SN BR FEW009 OVC033 M03/M04 A2991 RMK AO2 P0001 T10281039
KBFD 180514Z AUTO 28006KT 1 3/4SM -SN BR SCT009 OVC025 M02/M04 A2990 RMK AO2 P0000 T10221039
KBFD 180453Z AUTO 29008KT 2 1/2SM -SN BR BKN008 OVC029 M02/M03 A2990 RMK AO2 SLP148 P0001 T10221033 410171122
KBFD 180438Z AUTO 29004KT 2SM -SN BR BKN008 OVC014 M02/M03 A2990 RMK AO2 P0001 T10221033
KBFD 180428Z AUTO 28005KT 3SM -SN BR BKN009 BKN014 OVC019 M02/M03 A2991 RMK AO2 P0001 T10221033
KBFD 180420Z AUTO 27004KT 2SM -SN BR FEW009 BKN014 OVC018 M02/M03 A2990 RMK AO2 P0001 T10221033
KBFD 180353Z AUTO 00000KT 1 1/4SM -SN BR SCT009 OVC018 M02/M03 A2990 RMK AO2 SLP150 P0001 T10221033
KBFD 180322Z AUTO 28004KT 1 3/4SM -SN BR OVC006 M02/M03 A2991 RMK AO2 CIG 005V010 P0000 T10221033
KBFD 180313Z AUTO 29005KT 2SM -SN BR BKN006 OVC010 M02/M03 A2991 RMK AO2 P0000 T10221033
KBFD 180301Z AUTO 20004KT 4SM -SN BR BKN009 BKN015 OVC020 M02/M03 A2991 RMK AO2 CIG 006V012 P0000 T10221033
KBFD 180253Z AUTO 21004KT 5SM -SN BR FEW007 BKN012 OVC030 M02/M03 A2992 RMK AO2 SNE14B48 SLP155 P0001 60007 T10221033 56003
KBFD 180237Z AUTO 19003KT 9SM SCT022 BKN028 OVC050 M02/M03 A2991 RMK AO2 SNE14 P0001 T10221033
KBFD 180221Z AUTO 18004KT 8SM FEW020 SCT029 OVC050 M02/M03 A2991 RMK AO2 SNE14 P0001 T10221033
KBFD 180211Z AUTO 20004KT 6SM -SN BR FEW014 BKN020 OVC055 M02/M03 A2991 RMK AO2 P0001 T10221033
KBFD 180203Z AUTO VRB04KT 2SM -SN BR SCT014 BKN020 OVC055 M02/M03 A2991 RMK AO2 P0001 T10221033
KBFD 180200Z AUTO VRB03KT 1 1/2SM -SN BR BKN014 BKN019 OVC026 M02/M03 A2992 RMK AO2 P0000 T10221033
KBFD 180153Z AUTO 19003KT 3/4SM -SN BR BKN014 BKN019 OVC026 M02/M03 A2992 RMK AO2 SLP156 P0003 T10221033
KBFD 180150Z AUTO 20004KT 3/4SM -SN BR BKN012 OVC026 M02/M03 A2992 RMK AO2 P0003
KBFD 180138Z AUTO VRB04KT 1SM -SN BR FEW007 OVC011 M02/M03 A2991 RMK AO2 P0002 T10221033
KBFD 180131Z AUTO 18004KT 3/4SM -SN BR FEW007 OVC011 M02/M03 A2992 RMK AO2 P0002 T10221033
KBFD 180115Z AUTO 20003KT 3/4SM -SN BR OVC009 M02/M03 A2992 RMK AO2 P0001 T10221033
KBFD 180053Z AUTO 18005KT 1 1/2SM -SN BR BKN009 OVC017 M02/M03 A2992 RMK AO2 CIG 007V013 SLP161 P0003 T10221033
KBFD 180044Z AUTO 00000KT 2SM -SN BR BKN009 OVC017 M02/M03 A2993 RMK AO2 CIG 008V012 P0002 T10221033
KBFD 180025Z AUTO 17005KT 3SM -SN BR BKN009 OVC020 M02/M04 A2994 RMK AO2 P0002 T10221039
KBFD 180013Z AUTO 17004KT 2 1/2SM -SN BR SCT009 BKN020 OVC028 M02/M04 A2994 RMK AO2 P0001 T10221039
KBFD 180001Z AUTO VRB04KT 6SM -SN BR BKN009 OVC022 M03/M04 A2994 RMK AO2 P0000 T10281039
KBFD 172353Z AUTO VRB03KT 6SM -SN BR SCT009 BKN019 OVC050 M03/M04 A2994 RMK AO2 SLP168 P0001 60002 T10281039 11017 21033 55013
KBFD 172336Z AUTO 16006KT 3SM -SN BR FEW008 BKN024 OVC037 M03/M04 A2993 RMK AO2 P0001 T10281039
KBFD 172253Z AUTO 14007KT 1SM -SN BR FEW007 OVC017 M03/M04 A2993 RMK AO2 PRESFR SLP164 P0001 T10281044
KBFD 172153Z AUTO 16006KT 1SM -SN BR BKN020 OVC028 M03/M05 A2997 RMK AO2 SNB12 SLP178 P0000 T10281050
KBFD 172143Z AUTO 16007KT 1SM -SN BR VV019 M03/M05 A2998 RMK AO2 SNB12 P0000 T10281050
KBFD 172130Z AUTO 18005KT 3/4SM -SN BKN020 OVC026 M03/M06 A2998 RMK AO2 SNB12 P0000 T10281056
KBFD 172118Z AUTO 17008KT 1 3/4SM -SN OVC025 M02/M06 A2998 RMK AO2 SNB12 P0000 T10221061
KBFD 172053Z AUTO 17008G18KT 10SM OVC025 M02/M07 A2998 RMK AO2 SLP180 T10171072 56023
KBFD 171953Z AUTO 18010KT 10SM OVC024 M02/M08 A2998 RMK AO2 SLP181 T10221078
KBFD 171905Z AUTO 18013G17KT 10SM BKN023 M03/M09 A3001 RMK AO2 T10281089
KBFD 171853Z AUTO 17010G18KT 140V200 10SM FEW022 M03/M09 A3003 RMK AO2 SLP197 T10281094
KBFD 171753Z AUTO 19007KT 10SM SCT120 M03/M11 A3005 RMK AO2 SLP205 T10331106 11033 21122 58040
KBFD 171653Z AUTO 14007KT 10SM CLR M04/M11 A3008 RMK AO2 SLP216 T10391111
KBFD 171553Z AUTO 18007KT 140V200 10SM CLR M04/M12 A3015 RMK AO2 SLP237 T10441122
KBFD 171453Z AUTO 18007G15KT 10SM CLR M06/M13 A3017 RMK AO2 SLP248 T10611128 58010
KBFD 171353Z AUTO 18004KT 10SM CLR M07/M11 A3020 RMK AO2 SLP257 T10721106
KBFD 171253Z AUTO 00000KT 10SM CLR M11/M12 A3020 RMK AO2 SLP258 T11061122
KBFD 171153Z AUTO 15003KT 10SM CLR M12/M13 A3021 RMK AO2 SLP261 I1000 I6000 T11171133 11089 21117 50000
KBFD 171053Z AUTO 12003KT 10SM CLR M12/M13 A3022 RMK AO2 SLP265 I1000 T11171133
KBFD 170953Z AUTO 00000KT 10SM CLR M11/M13 A3021 RMK AO2 SLP261 I1000 T11111133
KBFD 170853Z AUTO 00000KT 10SM CLR M11/M12 A3021 RMK AO2 SLP257 I1000 I3000 T11061122 50007
KBFD 170753Z AUTO 00000KT 10SM CLR M10/M12 A3021 RMK AO2 SLP258 I1000 T11001117
KBFD 170653Z AUTO 00000KT 10SM CLR M10/M11 A3020 RMK AO2 SLP254 I1000 T11001111
KBFD 170553Z AUTO 15003KT 10SM CLR M09/M11 A3018 RMK AO2 SLP248 60000 T10891111 11044 21094 51008
KBFD 170453Z AUTO 29004KT 10SM CLR M07/M12 A3018 RMK AO2 SLP245 T10721117 400891078
KBFD 170353Z AUTO 31011KT 10SM CLR M07/M12 A3017 RMK AO2 SLP239 T10671117
KBFD 170253Z AUTO 33010KT 10SM SCT023 M06/M11 A3016 RMK AO2 SLP232 60000 T10611111 51023
KBFD 170153Z AUTO 31011KT 10SM OVC022 M05/M10 A3014 RMK AO2 SLP224 T10501100
KBFD 170053Z AUTO 30011G19KT 10SM OVC022 M04/M08 A3011 RMK AO2 SNE00 SLP213 P0000 T10441083
KBFD 162353Z AUTO 30012KT 6SM -SN OVC016 M03/M07 A3008 RMK AO2 SNB43 SLP203 P0000 60000 T10331067 11006 21033 53030
KBFD 162253Z AUTO 28011KT 10SM BKN020 OVC027 M03/M07 A3004 RMK AO2 SLP186 T10281067
KBFD 162153Z AUTO 33013KT 10SM BKN022 BKN028 M02/M06 A2999 RMK AO2 SLP169 T10171061
KBFD 162151Z AUTO 33014G21KT 10SM BKN022 BKN028 M02/M06 A2999 RMK AO2
KBFD 162138Z AUTO 33016KT 10SM SCT025 M01/M06 A2998 RMK AO2 T10111061
KBFD 162053Z AUTO 33013KT 10SM BKN020 OVC027 M01/M05 A2995 RMK AO2 SLP154 T10111050 53037
KBFD 162000Z AUTO 32014G21KT 10SM SCT011 OVC018 M01/M04 A2991 RMK AO2 T10111044
KBFD 161953Z AUTO 32013G22KT 10SM BKN011 OVC018 M01/M04 A2990 RMK AO2 SLP138 T10111039